createdAt,value
2022-09-13T00:00:47.754Z,100768.56
2022-09-13T00:04:42.295Z,100762.21
2022-09-13T00:08:29.883Z,100764.83
2022-09-13T00:12:07.883Z,100763.83
2022-09-13T00:15:55.479Z,100757.59
2022-09-13T00:19:26.777Z,100756.37
2022-09-13T00:23:12.045Z,100755.77
2022-09-13T00:26:59.626Z,100751.79
2022-09-13T00:30:46.671Z,100750.34
2022-09-13T00:34:17.745Z,100742.39
2022-09-13T00:38:05.482Z,100742.13
2022-09-13T00:41:53.063Z,100740.80
2022-09-13T00:45:52.487Z,100734.98
2022-09-13T00:49:42.866Z,100736.20
2022-09-13T00:53:24.892Z,100731.52
2022-09-13T00:57:15.274Z,100733.65
2022-09-13T01:00:55.826Z,100734.88
2022-09-13T01:04:36.125Z,100727.33
2022-09-13T01:08:01.813Z,100726.70
2022-09-13T01:11:52.042Z,100725.28
2022-09-13T01:15:39.562Z,100721.63
2022-09-13T01:19:27.186Z,100726.11
2022-09-13T01:23:24.728Z,100719.72
2022-09-13T01:27:27.185Z,100724.32
2022-09-13T01:31:15.111Z,100718.79
2022-09-13T01:34:48.388Z,100714.55
2022-09-13T01:38:19.655Z,100714.28
2022-09-13T01:41:53.462Z,100715.33
2022-09-13T01:45:33.499Z,100707.36
2022-09-13T01:49:36.074Z,100709.80
2022-09-13T01:53:35.700Z,100703.30
2022-09-13T01:57:12.990Z,100697.88
2022-09-13T02:00:54.063Z,100681.77
2022-09-13T02:04:59.649Z,100682.21
2022-09-13T02:08:16.026Z,100675.89
2022-09-13T02:12:06.381Z,100671.20
2022-09-13T02:15:42.529Z,100667.20
2022-09-13T02:19:30.092Z,100654.56
2022-09-13T02:22:53.461Z,100649.23
2022-09-13T02:26:26.255Z,100647.52
2022-09-13T02:30:13.767Z,100646.48
2022-09-13T02:34:01.211Z,100639.05
2022-09-13T02:37:07.892Z,100637.73
2022-09-13T02:40:40.558Z,100636.01
2022-09-13T02:44:05.528Z,100632.30
2022-09-13T02:48:04.643Z,100624.11
2022-09-13T02:52:17.994Z,100621.77
2022-09-13T02:56:11.188Z,100611.80
2022-09-13T02:59:58.873Z,100605.41
2022-09-13T03:03:28.594Z,100601.83
2022-09-13T03:06:50.570Z,100597.48
2022-09-13T03:09:39.554Z,100591.56
2022-09-13T03:12:43.738Z,100592.79
2022-09-13T03:16:40.268Z,100590.40
2022-09-13T03:20:33.592Z,100586.45
2022-09-13T03:24:30.547Z,100581.85
2022-09-13T03:28:32.870Z,100579.67
2022-09-13T03:32:28.348Z,100579.22
2022-09-13T03:36:24.756Z,100571.47
2022-09-13T03:40:01.431Z,100571.71
2022-09-13T03:44:06.794Z,100568.66
2022-09-13T03:47:54.426Z,100562.46
2022-09-13T03:51:41.910Z,100559.14
2022-09-13T03:55:20.620Z,100557.79
2022-09-13T03:58:39.400Z,100555.05
2022-09-13T04:02:11.864Z,100553.64
2022-09-13T04:05:52.317Z,100555.19
2022-09-13T04:09:40.222Z,100554.92
2022-09-13T04:13:04.026Z,100561.61
2022-09-13T04:16:44.018Z,100565.20
2022-09-13T04:20:31.651Z,100564.09
2022-09-13T04:24:19.476Z,100562.63
2022-09-13T04:28:08.943Z,100558.41
2022-09-13T04:31:56.707Z,100559.92
2022-09-13T04:35:44.499Z,100567.88
2022-09-13T04:39:17.339Z,100564.84
2022-09-13T04:42:58.281Z,100564.23
2022-09-13T04:46:06.367Z,100557.55
2022-09-13T04:49:42.606Z,100547.49
2022-09-13T04:53:22.898Z,100545.30
2022-09-13T04:57:10.398Z,100540.45
2022-09-13T05:00:50.992Z,100547.96
2022-09-13T05:04:11.518Z,100543.03
2022-09-13T05:07:49.254Z,100536.21
2022-09-13T05:11:11.380Z,100529.52
2022-09-13T05:14:51.553Z,100521.60
2022-09-13T05:18:32.061Z,100520.52
2022-09-13T05:22:02.824Z,100522.27
2022-09-13T05:25:50.051Z,100519.51
2022-09-13T05:29:07.033Z,100515.20
2022-09-13T05:32:53.448Z,100511.77
2022-09-13T05:36:39.689Z,100505.60
2022-09-13T05:40:13.748Z,100494.16
2022-09-13T05:43:41.598Z,100489.79
2022-09-13T05:47:23.355Z,100494.17
2022-09-13T05:51:10.819Z,100490.09
2022-09-13T05:54:48.561Z,100490.66
2022-09-13T05:58:16.464Z,100485.16
2022-09-13T06:01:29.501Z,100478.09
2022-09-13T06:05:07.574Z,100471.83
2022-09-13T06:08:47.768Z,100462.18
2022-09-13T06:12:35.371Z,100466.81
2022-09-13T06:16:22.582Z,100466.02
2022-09-13T06:20:10.716Z,100464.24
2022-09-13T06:23:51.811Z,100460.34
2022-09-13T06:27:22.867Z,100460.67
2022-09-13T06:30:58.008Z,100457.46
2022-09-13T06:34:36.508Z,100455.93
2022-09-13T06:38:04.013Z,100452.98
2022-09-13T06:41:51.432Z,100454.73
2022-09-13T06:45:31.687Z,100448.29
2022-09-13T06:49:19.303Z,100448.47
2022-09-13T06:53:06.814Z,100448.80
2022-09-13T06:56:52.137Z,100438.27
2022-09-13T07:00:38.600Z,100433.11
2022-09-13T07:04:26.271Z,100430.58
2022-09-13T07:08:13.942Z,100421.82
2022-09-13T07:12:01.403Z,100416.39
2022-09-13T07:15:49.297Z,100413.29
2022-09-13T07:19:36.846Z,100410.20
2022-09-13T07:23:24.361Z,100411.14
2022-09-13T07:27:12.018Z,100411.08
2022-09-13T07:30:59.668Z,100410.86
2022-09-13T07:34:47.268Z,100414.16
2022-09-13T07:38:34.797Z,100409.52
2022-09-13T07:42:22.436Z,100411.54
2022-09-13T07:46:09.845Z,100407.50
2022-09-13T07:49:57.533Z,100398.89
2022-09-13T07:53:45.610Z,100402.54
2022-09-13T07:57:33.094Z,100396.13
2022-09-13T08:01:20.667Z,100392.49
2022-09-13T08:05:08.276Z,100386.32
2022-09-13T08:08:55.977Z,100390.49
2022-09-13T08:12:47.477Z,100386.27
2022-09-13T08:16:35.600Z,100395.39
2022-09-13T08:20:24.464Z,100395.64
2022-09-13T08:24:12.602Z,100394.95
2022-09-13T08:28:00.782Z,100390.62
2022-09-13T08:31:51.732Z,100394.59
2022-09-13T08:35:38.785Z,100382.24
2022-09-13T08:39:29.274Z,100378.10
2022-09-13T08:43:21.174Z,100370.56
2022-09-13T08:47:09.089Z,100368.23
2022-09-13T08:51:06.456Z,100369.64
2022-09-13T08:54:57.959Z,100362.77
2022-09-13T08:58:45.859Z,100360.83
2022-09-13T09:02:45.613Z,100349.87
2022-09-13T09:06:33.273Z,100343.16
2022-09-13T09:10:32.860Z,100335.17
2022-09-13T09:14:18.518Z,100328.88
2022-09-13T09:18:07.164Z,100323.59
2022-09-13T09:21:57.350Z,100314.48
2022-09-13T09:25:47.936Z,100315.20
2022-09-13T09:29:35.849Z,100314.52
2022-09-13T09:33:42.622Z,100318.30
2022-09-13T09:37:39.341Z,100309.92
2022-09-13T09:41:26.977Z,100306.35
2022-09-13T09:45:18.014Z,100304.45
2022-09-13T09:49:05.793Z,100303.30
2022-09-13T09:52:53.983Z,100310.37
2022-09-13T09:56:46.830Z,100314.80
2022-09-13T10:00:34.599Z,100318.22
2022-09-13T10:04:25.248Z,100312.19
2022-09-13T10:08:15.673Z,100309.46
2022-09-13T10:12:03.488Z,100299.48
2022-09-13T10:15:57.276Z,100305.59
2022-09-13T10:19:57.254Z,100301.35
2022-09-13T10:23:59.707Z,100295.02
2022-09-13T10:27:37.361Z,100293.13
2022-09-13T10:31:34.690Z,100289.19
2022-09-13T10:35:31.583Z,100290.63
2022-09-13T10:39:28.405Z,100283.77
2022-09-13T10:43:16.601Z,100276.80
2022-09-13T10:47:04.609Z,100277.17
2022-09-13T10:50:52.348Z,100277.20
2022-09-13T10:54:54.588Z,100277.77
2022-09-13T10:58:42.149Z,100268.37
2022-09-13T11:02:33.375Z,100267.98
2022-09-13T11:06:36.126Z,100261.02
2022-09-13T11:10:29.854Z,100262.31
2022-09-13T11:14:44.801Z,100259.42
2022-09-13T11:18:29.355Z,100245.67
2022-09-13T11:22:27.843Z,100238.54
2022-09-13T11:26:30.126Z,100232.90
2022-09-13T11:30:30.005Z,100227.36
2022-09-13T11:34:23.913Z,100228.65
2022-09-13T11:38:23.439Z,100219.33
2022-09-13T11:42:13.854Z,100216.82
2022-09-13T11:46:13.615Z,100207.08
2022-09-13T11:50:14.246Z,100208.52
2022-09-13T11:54:02.641Z,100212.73
2022-09-13T11:57:59.189Z,100200.38
2022-09-13T12:01:47.595Z,100200.54
2022-09-13T12:05:41.708Z,100197.27
2022-09-13T12:09:29.951Z,100187.03
2022-09-13T12:13:18.044Z,100184.00
2022-09-13T12:17:18.046Z,100176.25
2022-09-13T12:20:57.503Z,100166.89
2022-09-13T12:25:02.728Z,100164.27
2022-09-13T12:28:46.191Z,100158.06
2022-09-13T12:32:06.066Z,100151.65
2022-09-13T12:35:56.866Z,100155.80
2022-09-13T12:40:00.025Z,100154.61
2022-09-13T12:44:21.298Z,100156.30
2022-09-13T12:48:27.091Z,100164.48
2022-09-13T12:52:26.903Z,100153.85
2022-09-13T12:56:45.887Z,100146.89
2022-09-13T13:00:55.213Z,100136.80
2022-09-13T13:04:55.867Z,100131.09
2022-09-13T13:08:38.859Z,100126.42
2022-09-13T13:12:27.526Z,100124.52
2022-09-13T13:16:15.686Z,100123.00
2022-09-13T13:20:09.706Z,100114.77
2022-09-13T13:24:04.580Z,100115.45
2022-09-13T13:28:00.454Z,100108.84
2022-09-13T13:32:10.190Z,100107.91
2022-09-13T13:36:09.627Z,100106.96
2022-09-13T13:40:03.662Z,100102.26
2022-09-13T13:43:50.044Z,100100.33
2022-09-13T13:47:43.417Z,100094.31
2022-09-13T13:51:29.686Z,100096.23
2022-09-13T13:55:32.566Z,100090.25
2022-09-13T13:59:29.014Z,100086.20
2022-09-13T14:03:33.266Z,100084.30
2022-09-13T14:07:24.012Z,100087.27
2022-09-13T14:11:11.928Z,100082.02
2022-09-13T14:15:01.659Z,100080.40
2022-09-13T14:18:54.703Z,100068.63
2022-09-13T14:22:46.304Z,100065.77
2022-09-13T14:26:25.027Z,100063.45
2022-09-13T14:30:12.873Z,100065.19
2022-09-13T14:34:08.241Z,100056.89
2022-09-13T14:37:58.903Z,100054.93
2022-09-13T14:41:38.865Z,100050.23
2022-09-13T14:45:19.293Z,100048.51
2022-09-13T14:49:07.660Z,100039.59
2022-09-13T14:53:04.952Z,100041.16
2022-09-13T14:56:59.222Z,100037.98
2022-09-13T15:00:43.438Z,100034.67
2022-09-13T15:04:31.494Z,100035.88
2022-09-13T15:08:25.443Z,100034.65
2022-09-13T15:12:21.306Z,100031.74
2022-09-13T15:16:07.783Z,100029.09
2022-09-13T15:19:54.597Z,100023.83
2022-09-13T15:23:42.976Z,100027.81
2022-09-13T15:27:31.970Z,100024.37
2022-09-13T15:31:22.671Z,100023.53
2022-09-13T15:35:18.242Z,100026.17
2022-09-13T15:39:37.383Z,100032.40
2022-09-13T15:43:25.230Z,100032.13
2022-09-13T15:47:13.972Z,100023.86
2022-09-13T15:51:03.676Z,100025.90
2022-09-13T15:54:53.723Z,100027.95
2022-09-13T15:58:42.372Z,100025.74
2022-09-13T16:02:30.522Z,100024.88
2022-09-13T16:06:19.570Z,100024.29
2022-09-13T16:10:22.907Z,100026.73
2022-09-13T16:14:11.389Z,100027.52
2022-09-13T16:17:59.570Z,100026.33
2022-09-13T16:21:32.078Z,100027.75
2022-09-13T16:25:09.802Z,100023.86
2022-09-13T16:28:57.708Z,100014.77
2022-09-13T16:32:45.987Z,100017.90
2022-09-13T16:36:35.049Z,100016.14
2022-09-13T16:40:16.923Z,100016.88
2022-09-13T16:43:47.963Z,100014.81
2022-09-13T16:47:29.424Z,100017.79
2022-09-13T16:51:19.928Z,100020.08
2022-09-13T16:55:07.898Z,100024.15
2022-09-13T16:58:55.219Z,100024.52
2022-09-13T17:02:37.800Z,100024.77
2022-09-13T17:06:45.602Z,100024.09
2022-09-13T17:10:37.330Z,100023.95
2022-09-13T17:14:27.780Z,100023.45
2022-09-13T17:18:17.638Z,100028.31
2022-09-13T17:22:09.063Z,100025.11
2022-09-13T17:26:04.867Z,100023.25
2022-09-13T17:29:52.740Z,100016.10
2022-09-13T17:33:40.758Z,100027.27
2022-09-13T17:37:28.799Z,100024.10
2022-09-13T17:41:16.805Z,100020.36
2022-09-13T17:45:04.603Z,100017.63
2022-09-13T17:48:52.313Z,100018.66
2022-09-13T17:52:40.941Z,100025.19
2022-09-13T17:56:22.457Z,100021.73
2022-09-13T18:00:14.290Z,100025.27
2022-09-13T18:04:03.170Z,100027.05
2022-09-13T18:07:52.451Z,100019.59
2022-09-13T18:11:49.500Z,100017.95
2022-09-13T18:15:36.272Z,100017.10
2022-09-13T18:19:44.231Z,100024.55
2022-09-13T18:23:33.104Z,100028.88
2022-09-13T18:27:25.224Z,100033.27
2022-09-13T18:31:15.822Z,100042.08
2022-09-13T18:34:47.642Z,100044.64
2022-09-13T18:38:35.628Z,100043.52
2022-09-13T18:42:24.484Z,100045.04
2022-09-13T18:46:12.559Z,100047.69
2022-09-13T18:49:44.063Z,100047.93
2022-09-13T18:53:34.944Z,100041.86
2022-09-13T18:57:23.765Z,100038.04
2022-09-13T19:05:32.915Z,100028.60
2022-09-13T19:24:17.254Z,100027.44
2022-09-13T19:27:59.011Z,100024.69
2022-09-13T19:31:51.322Z,100018.34
2022-09-13T19:35:33.175Z,100024.43
2022-09-13T19:39:04.313Z,100018.84
2022-09-13T19:42:33.068Z,100019.19
2022-09-13T19:46:25.787Z,100028.73
2022-09-13T19:50:04.572Z,100026.45
2022-09-13T19:53:57.335Z,100018.48
2022-09-13T19:57:46.248Z,100012.48
2022-09-13T20:01:41.429Z,100019.04
2022-09-13T20:05:27.435Z,100023.94
2022-09-13T20:09:16.377Z,100017.41
2022-09-13T20:12:45.067Z,100017.29
2022-09-13T20:16:33.817Z,100021.52
2022-09-13T20:20:22.051Z,100021.00
2022-09-13T20:24:01.204Z,100021.29
2022-09-13T20:27:48.768Z,100024.94
2022-09-13T20:31:36.481Z,100024.16
2022-09-13T20:35:09.643Z,100023.20
2022-09-13T20:38:51.518Z,100023.97
2022-09-13T20:42:39.847Z,100021.85
2022-09-13T20:46:27.568Z,100014.54
2022-09-13T20:50:14.370Z,100010.64
2022-09-13T20:54:02.039Z,100013.53
2022-09-13T20:57:43.713Z,100006.17
2022-09-13T21:01:31.941Z,100004.91
2022-09-13T21:05:19.719Z,100002.96
2022-09-13T21:09:07.649Z,100007.15
2022-09-13T21:12:55.299Z,100007.04
2022-09-13T21:16:42.587Z,100002.28
2022-09-13T21:20:30.233Z,100001.69
2022-09-13T21:24:18.380Z,100001.96
2022-09-13T21:28:05.893Z,100006.66
2022-09-13T21:31:59.297Z,100006.92
2022-09-13T21:35:46.982Z,100011.48
2022-09-13T21:39:27.253Z,100006.48
2022-09-13T21:43:14.589Z,100003.67
2022-09-13T21:47:07.872Z,100004.86
2022-09-13T21:50:50.647Z,100004.45
2022-09-13T21:54:28.299Z,100000.27
2022-09-13T21:58:15.848Z,99998.82
2022-09-13T22:02:06.500Z,100000.61
2022-09-13T22:05:53.993Z,99994.84
2022-09-13T22:09:33.463Z,99996.11
2022-09-13T22:13:21.695Z,99996.90
2022-09-13T22:17:14.505Z,99986.71
2022-09-13T22:21:02.172Z,99989.54
2022-09-13T22:24:39.625Z,99987.66
2022-09-13T22:28:27.457Z,99989.17
2022-09-13T22:32:20.374Z,99988.93
2022-09-13T22:36:10.696Z,99984.59
2022-09-13T22:39:58.298Z,99989.38
2022-09-13T22:43:45.778Z,99984.35
2022-09-13T22:47:33.221Z,99993.95
2022-09-13T22:51:11.312Z,99992.25
2022-09-13T22:54:59.024Z,99992.73
2022-09-13T22:58:46.759Z,99992.72
2022-09-13T23:02:34.538Z,99993.96
2022-09-13T23:06:15.244Z,99991.39
2022-09-13T23:10:02.702Z,99987.79
2022-09-13T23:13:50.213Z,99986.92
2022-09-13T23:17:37.830Z,99984.70
2022-09-13T23:21:18.828Z,99979.88
2022-09-13T23:25:06.653Z,99970.51
2022-09-13T23:28:54.438Z,99968.45
2022-09-13T23:32:42.818Z,99970.48
2022-09-13T23:36:30.321Z,99975.73
2022-09-13T23:40:19.535Z,99978.89
2022-09-13T23:43:57.236Z,99979.81
2022-09-13T23:47:21.479Z,99972.88
2022-09-13T23:51:08.993Z,99973.52
2022-09-13T23:54:57.170Z,99974.88
2022-09-13T23:58:45.162Z,99978.11
